Poe, Indiana
Current Conditions -  °F | °C
As of 9:54 AM on Friday 24 Oct 2014 (Local Time) from KFWA Reporting Station
Broken Clouds Broken Clouds  
Wind Chill: 46°   Ceiling: 10000
Heat Index: 48°   Visibility: 10mi
Dew Point: 43°   Wind: 5mph
Humidity: 83%   Direction: 200°SSW
Pressure: 30.11"   Gusts: NA
Location:  40.9649°N, 85.1332°W
Report Text: KFWA 241354Z 20004KT 10SM SCT045 BKN100 09/06 A3011 RMK AO2 SLP199 T00890061
Loading
Personal Weather Stations






























Interactive Weather Map
Tropical Storm Tracking
New forecast layout! Learn more

10-Day Weather Forecast

Advertisements
Track Severe Weather on mobile